sensor_id;sensor_type;location;lat;lon;timestamp;pressure;altitude;pressure_sealevel;temperature;humidity
75208;BME280;63795;55.684;37.864;2022-10-16T00:03:16;101038.47;;;5.47;63.57
75208;BME280;63795;55.684;37.864;2022-10-16T00:08:17;101046.44;;;5.45;63.74
75208;BME280;63795;55.684;37.864;2022-10-16T00:13:18;101045.34;;;5.38;63.82
75208;BME280;63795;55.684;37.864;2022-10-16T00:18:19;101051.66;;;5.35;63.70
75208;BME280;63795;55.684;37.864;2022-10-16T00:23:20;101043.97;;;5.23;64.01
75208;BME280;63795;55.684;37.864;2022-10-16T00:28:21;101062.47;;;5.24;64.15
75208;BME280;63795;55.684;37.864;2022-10-16T00:33:22;101049.31;;;5.16;64.17
75208;BME280;63795;55.684;37.864;2022-10-16T00:38:23;101058.50;;;5.25;64.08
75208;BME280;63795;55.684;37.864;2022-10-16T00:49:17;101065.06;;;5.29;64.55
75208;BME280;63795;55.684;37.864;2022-10-16T00:54:29;101069.25;;;5.23;64.49
75208;BME280;63795;55.684;37.864;2022-10-16T00:59:40;101078.44;;;5.11;64.62
75208;BME280;63795;55.684;37.864;2022-10-16T01:04:52;101076.19;;;5.05;65.07
75208;BME280;63795;55.684;37.864;2022-10-16T01:10:07;101075.06;;;4.97;65.33
75208;BME280;63795;55.684;37.864;2022-10-16T01:21:05;101048.47;;;4.66;65.68
75208;BME280;63795;55.684;37.864;2022-10-16T01:26:40;101078.50;;;4.74;66.35
75208;BME280;63795;55.684;37.864;2022-10-16T01:31:56;101073.25;;;4.64;65.98
75208;BME280;63795;55.684;37.864;2022-10-16T01:37:09;101068.34;;;4.52;65.72
75208;BME280;63795;55.684;37.864;2022-10-16T01:42:19;101083.16;;;4.61;66.22
75208;BME280;63795;55.684;37.864;2022-10-16T01:47:23;101091.66;;;4.53;66.22
75208;BME280;63795;55.684;37.864;2022-10-16T01:52:26;101096.09;;;4.54;66.58
75208;BME280;63795;55.684;37.864;2022-10-16T01:57:29;101090.31;;;4.59;66.25
75208;BME280;63795;55.684;37.864;2022-10-16T02:02:31;101095.59;;;4.60;66.38
75208;BME280;63795;55.684;37.864;2022-10-16T02:07:32;101093.06;;;4.67;66.27
75208;BME280;63795;55.684;37.864;2022-10-16T02:12:36;101097.28;;;4.82;66.20
75208;BME280;63795;55.684;37.864;2022-10-16T02:17:39;101098.47;;;4.81;65.91
75208;BME280;63795;55.684;37.864;2022-10-16T02:22:43;101045.97;;;4.35;66.32
75208;BME280;63795;55.684;37.864;2022-10-16T02:33:01;101107.81;;;4.56;66.52
75208;BME280;63795;55.684;37.864;2022-10-16T02:38:03;101101.84;;;4.57;66.20
75208;BME280;63795;55.684;37.864;2022-10-16T02:43:05;101098.75;;;4.50;66.46
75208;BME280;63795;55.684;37.864;2022-10-16T02:48:06;101108.31;;;4.58;66.62
75208;BME280;63795;55.684;37.864;2022-10-16T02:53:07;101113.41;;;4.64;66.35
75208;BME280;63795;55.684;37.864;2022-10-16T02:58:07;101111.09;;;4.58;66.61
75208;BME280;63795;55.684;37.864;2022-10-16T03:03:08;101112.72;;;4.67;66.34
75208;BME280;63795;55.684;37.864;2022-10-16T03:08:08;101109.66;;;4.52;66.40
75208;BME280;63795;55.684;37.864;2022-10-16T03:13:09;101112.16;;;4.45;66.71
75208;BME280;63795;55.684;37.864;2022-10-16T03:18:09;101115.63;;;4.33;67.11
75208;BME280;63795;55.684;37.864;2022-10-16T03:23:11;101124.03;;;4.42;66.81
75208;BME280;63795;55.684;37.864;2022-10-16T03:28:11;101121.25;;;4.42;66.94
75208;BME280;63795;55.684;37.864;2022-10-16T03:33:12;101130.84;;;4.41;66.92
75208;BME280;63795;55.684;37.864;2022-10-16T03:38:12;101135.09;;;4.47;66.97
75208;BME280;63795;55.684;37.864;2022-10-16T03:43:13;101126.56;;;4.26;67.32
75208;BME280;63795;55.684;37.864;2022-10-16T03:48:13;101127.06;;;4.19;67.27
75208;BME280;63795;55.684;37.864;2022-10-16T03:53:14;101133.53;;;4.20;67.56
75208;BME280;63795;55.684;37.864;2022-10-16T03:58:15;101133.19;;;4.13;67.57
75208;BME280;63795;55.684;37.864;2022-10-16T04:03:16;101142.78;;;4.12;67.64
75208;BME280;63795;55.684;37.864;2022-10-16T04:08:17;101143.41;;;4.09;67.68
75208;BME280;63795;55.684;37.864;2022-10-16T04:13:18;101138.84;;;4.04;67.42
75208;BME280;63795;55.684;37.864;2022-10-16T04:18:19;101126.78;;;3.95;67.69
75208;BME280;63795;55.684;37.864;2022-10-16T04:23:20;101147.59;;;3.94;68.44
75208;BME280;63795;55.684;37.864;2022-10-16T04:28:20;101115.75;;;3.82;68.26
75208;BME280;63795;55.684;37.864;2022-10-16T04:33:21;101142.97;;;3.98;68.17
75208;BME280;63795;55.684;37.864;2022-10-16T04:38:22;101150.84;;;4.13;67.85
75208;BME280;63795;55.684;37.864;2022-10-16T04:43:23;101119.34;;;4.08;67.35
75208;BME280;63795;55.684;37.864;2022-10-16T04:48:23;101162.69;;;4.45;67.41
75208;BME280;63795;55.684;37.864;2022-10-16T04:53:24;101152.94;;;4.51;66.91
75208;BME280;63795;55.684;37.864;2022-10-16T04:58:24;101146.81;;;4.49;66.77
75208;BME280;63795;55.684;37.864;2022-10-16T05:03:25;101147.72;;;4.70;66.75
75208;BME280;63795;55.684;37.864;2022-10-16T05:08:25;101167.81;;;6.50;62.72
75208;BME280;63795;55.684;37.864;2022-10-16T05:13:26;101143.25;;;7.84;59.09
75208;BME280;63795;55.684;37.864;2022-10-16T05:18:26;101167.38;;;8.92;57.12
75208;BME280;63795;55.684;37.864;2022-10-16T05:23:27;101167.09;;;9.43;55.89
75208;BME280;63795;55.684;37.864;2022-10-16T05:28:29;101172.81;;;10.55;53.84
75208;BME280;63795;55.684;37.864;2022-10-16T05:33:30;101176.59;;;10.81;52.07
75208;BME280;63795;55.684;37.864;2022-10-16T05:38:36;101183.69;;;11.13;52.17
75208;BME280;63795;55.684;37.864;2022-10-16T05:43:36;101180.44;;;11.38;50.90
75208;BME280;63795;55.684;37.864;2022-10-16T05:48:37;101176.00;;;11.89;49.81
75208;BME280;63795;55.684;37.864;2022-10-16T05:53:39;101173.38;;;12.66;47.58
75208;BME280;63795;55.684;37.864;2022-10-16T05:58:40;101193.63;;;14.46;44.71
75208;BME280;63795;55.684;37.864;2022-10-16T06:03:41;101167.66;;;14.90;44.20
75208;BME280;63795;55.684;37.864;2022-10-16T06:08:45;101202.72;;;14.87;44.39
75208;BME280;63795;55.684;37.864;2022-10-16T06:13:52;101186.97;;;15.46;43.02
75208;BME280;63795;55.684;37.864;2022-10-16T06:18:54;101181.59;;;15.97;42.63
75208;BME280;63795;55.684;37.864;2022-10-16T06:24:00;101203.97;;;16.38;41.66
75208;BME280;63795;55.684;37.864;2022-10-16T06:29:01;101186.56;;;17.01;40.67
75208;BME280;63795;55.684;37.864;2022-10-16T06:34:02;101199.06;;;17.28;39.92
75208;BME280;63795;55.684;37.864;2022-10-16T06:39:05;101219.81;;;17.46;39.34
75208;BME280;63795;55.684;37.864;2022-10-16T06:44:07;101211.38;;;17.22;38.66
75208;BME280;63795;55.684;37.864;2022-10-16T06:49:08;101213.47;;;15.85;40.72
75208;BME280;63795;55.684;37.864;2022-10-16T06:54:09;101208.94;;;12.49;45.12
75208;BME280;63795;55.684;37.864;2022-10-16T06:59:09;101207.97;;;10.31;48.07
75208;BME280;63795;55.684;37.864;2022-10-16T07:04:10;101219.41;;;9.50;48.93
75208;BME280;63795;55.684;37.864;2022-10-16T07:09:11;101207.19;;;8.71;50.02
75208;BME280;63795;55.684;37.864;2022-10-16T07:14:16;101175.13;;;9.41;48.51
75208;BME280;63795;55.684;37.864;2022-10-16T07:19:17;101196.75;;;9.03;49.33
75208;BME280;63795;55.684;37.864;2022-10-16T07:24:18;101206.97;;;8.64;50.60
75208;BME280;63795;55.684;37.864;2022-10-16T07:29:21;101188.06;;;8.37;51.17
75208;BME280;63795;55.684;37.864;2022-10-16T07:34:22;101223.34;;;8.43;51.49
75208;BME280;63795;55.684;37.864;2022-10-16T07:39:23;101209.00;;;8.24;52.04
75208;BME280;63795;55.684;37.864;2022-10-16T07:44:23;101209.50;;;8.14;52.58
75208;BME280;63795;55.684;37.864;2022-10-16T07:49:24;101225.72;;;8.41;52.58
75208;BME280;63795;55.684;37.864;2022-10-16T07:54:24;101216.16;;;8.45;52.51
75208;BME280;63795;55.684;37.864;2022-10-16T07:59:25;101220.13;;;8.72;52.32
75208;BME280;63795;55.684;37.864;2022-10-16T08:04:26;101202.16;;;8.65;52.61
75208;BME280;63795;55.684;37.864;2022-10-16T08:09:27;101212.69;;;8.52;53.52
75208;BME280;63795;55.684;37.864;2022-10-16T08:14:27;101228.91;;;8.67;53.39
75208;BME280;63795;55.684;37.864;2022-10-16T08:19:28;101222.88;;;8.69;53.52
75208;BME280;63795;55.684;37.864;2022-10-16T08:24:29;101226.19;;;8.86;53.36
75208;BME280;63795;55.684;37.864;2022-10-16T08:29:31;101223.19;;;8.79;53.91
75208;BME280;63795;55.684;37.864;2022-10-16T13:10:28;101127.91;;;12.73;39.87
75208;BME280;63795;55.684;37.864;2022-10-16T13:31:24;101116.72;;;12.50;40.40
75208;BME280;63795;55.684;37.864;2022-10-16T13:36:34;101101.75;;;12.20;41.05
75208;BME280;63795;55.684;37.864;2022-10-16T13:41:35;101120.97;;;12.34;40.54
75208;BME280;63795;55.684;37.864;2022-10-16T13:46:37;101094.75;;;12.14;40.99
75208;BME280;63795;55.684;37.864;2022-10-16T13:51:37;101089.31;;;12.02;40.82
75208;BME280;63795;55.684;37.864;2022-10-16T13:56:39;101112.13;;;12.09;41.09
75208;BME280;63795;55.684;37.864;2022-10-16T14:01:42;101120.91;;;11.97;41.30
75208;BME280;63795;55.684;37.864;2022-10-16T14:06:45;101116.34;;;11.89;41.80
75208;BME280;63795;55.684;37.864;2022-10-16T14:11:52;101106.88;;;11.78;42.02
75208;BME280;63795;55.684;37.864;2022-10-16T14:16:53;101088.31;;;11.61;42.61
75208;BME280;63795;55.684;37.864;2022-10-16T14:21:54;101104.94;;;11.59;43.11
75208;BME280;63795;55.684;37.864;2022-10-16T14:26:56;101096.16;;;11.42;43.23
75208;BME280;63795;55.684;37.864;2022-10-16T14:32:01;101106.81;;;11.48;43.25
75208;BME280;63795;55.684;37.864;2022-10-16T14:37:23;101125.63;;;11.34;43.99
75208;BME280;63795;55.684;37.864;2022-10-16T14:42:25;101122.22;;;11.25;43.93
75208;BME280;63795;55.684;37.864;2022-10-16T14:47:26;101103.06;;;11.18;43.96
75208;BME280;63795;55.684;37.864;2022-10-16T14:52:27;101111.41;;;11.07;44.58
75208;BME280;63795;55.684;37.864;2022-10-16T14:57:31;101122.25;;;11.02;45.02
75208;BME280;63795;55.684;37.864;2022-10-16T15:02:35;101125.78;;;10.95;44.86
75208;BME280;63795;55.684;37.864;2022-10-16T15:07:38;101106.75;;;10.73;45.18
75208;BME280;63795;55.684;37.864;2022-10-16T15:12:39;101122.69;;;10.81;45.17
75208;BME280;63795;55.684;37.864;2022-10-16T15:17:40;101106.59;;;10.66;45.46
75208;BME280;63795;55.684;37.864;2022-10-16T15:22:40;101118.09;;;10.73;45.44
75208;BME280;63795;55.684;37.864;2022-10-16T15:27:43;101122.81;;;10.66;45.66
75208;BME280;63795;55.684;37.864;2022-10-16T15:32:44;101109.63;;;10.54;46.17
75208;BME280;63795;55.684;37.864;2022-10-16T15:37:46;101118.13;;;10.54;46.39
75208;BME280;63795;55.684;37.864;2022-10-16T15:42:48;101121.56;;;10.44;46.45
75208;BME280;63795;55.684;37.864;2022-10-16T15:47:50;101104.50;;;10.41;46.62
75208;BME280;63795;55.684;37.864;2022-10-16T15:52:51;101103.53;;;10.33;46.92
75208;BME280;63795;55.684;37.864;2022-10-16T15:57:51;101111.47;;;10.24;47.04
75208;BME280;63795;55.684;37.864;2022-10-16T16:02:53;101093.72;;;10.08;47.31
75208;BME280;63795;55.684;37.864;2022-10-16T16:07:54;101106.53;;;10.21;47.21
75208;BME280;63795;55.684;37.864;2022-10-16T16:12:54;101097.22;;;10.01;47.79
75208;BME280;63795;55.684;37.864;2022-10-16T16:17:55;101115.31;;;9.97;48.14
75208;BME280;63795;55.684;37.864;2022-10-16T16:22:56;101106.22;;;9.88;48.09
75208;BME280;63795;55.684;37.864;2022-10-16T16:27:56;101102.41;;;9.80;47.95
75208;BME280;63795;55.684;37.864;2022-10-16T16:32:57;101096.97;;;9.72;48.15
75208;BME280;63795;55.684;37.864;2022-10-16T16:43:29;101087.72;;;9.56;48.93
75208;BME280;63795;55.684;37.864;2022-10-16T16:48:31;101097.69;;;9.50;49.12
75208;BME280;63795;55.684;37.864;2022-10-16T16:53:36;101114.56;;;9.46;49.27
75208;BME280;63795;55.684;37.864;2022-10-16T16:58:36;101107.91;;;9.38;49.56
75208;BME280;63795;55.684;37.864;2022-10-16T17:03:37;101119.34;;;9.26;49.92
75208;BME280;63795;55.684;37.864;2022-10-16T17:08:38;101120.00;;;9.20;50.00
75208;BME280;63795;55.684;37.864;2022-10-16T17:13:39;101105.69;;;9.13;50.28
75208;BME280;63795;55.684;37.864;2022-10-16T17:18:46;101102.06;;;8.97;50.66
75208;BME280;63795;55.684;37.864;2022-10-16T17:23:47;101117.56;;;9.03;50.69
75208;BME280;63795;55.684;37.864;2022-10-16T17:28:52;101111.72;;;8.96;51.18
75208;BME280;63795;55.684;37.864;2022-10-16T17:33:53;101072.22;;;8.68;51.05
75208;BME280;63795;55.684;37.864;2022-10-16T17:39:00;101104.69;;;8.74;51.64
75208;BME280;63795;55.684;37.864;2022-10-16T17:44:07;101093.66;;;8.69;51.30
75208;BME280;63795;55.684;37.864;2022-10-16T17:49:08;101119.03;;;8.66;51.70
75208;BME280;63795;55.684;37.864;2022-10-16T17:54:20;101127.66;;;8.57;52.14
75208;BME280;63795;55.684;37.864;2022-10-16T17:59:21;101113.06;;;8.55;52.07
75208;BME280;63795;55.684;37.864;2022-10-16T18:04:22;101096.72;;;8.33;52.32
75208;BME280;63795;55.684;37.864;2022-10-16T18:09:23;101113.66;;;8.33;52.71
75208;BME280;63795;55.684;37.864;2022-10-16T18:24:44;101116.06;;;8.19;53.29
75208;BME280;63795;55.684;37.864;2022-10-16T18:29:45;101079.09;;;7.96;52.92
75208;BME280;63795;55.684;37.864;2022-10-16T18:34:50;101111.84;;;8.13;53.34
75208;BME280;63795;55.684;37.864;2022-10-16T18:39:52;101118.22;;;8.10;53.43
75208;BME280;63795;55.684;37.864;2022-10-16T18:44:54;101123.19;;;8.01;53.73
75208;BME280;63795;55.684;37.864;2022-10-16T18:55:21;101086.38;;;7.69;54.24
75208;BME280;63795;55.684;37.864;2022-10-16T19:00:24;101088.47;;;7.72;54.29
75208;BME280;63795;55.684;37.864;2022-10-16T19:05:25;101102.41;;;7.65;54.31
75208;BME280;63795;55.684;37.864;2022-10-16T19:10:26;101114.84;;;7.64;54.64
75208;BME280;63795;55.684;37.864;2022-10-16T19:15:40;101090.31;;;7.53;54.79
75208;BME280;63795;55.684;37.864;2022-10-16T19:20:42;101093.34;;;7.60;54.44
75208;BME280;63795;55.684;37.864;2022-10-16T19:25:43;101103.09;;;7.62;54.60
75208;BME280;63795;55.684;37.864;2022-10-16T19:30:44;101096.63;;;7.62;54.89
75208;BME280;63795;55.684;37.864;2022-10-16T19:35:47;101106.38;;;7.64;55.07
75208;BME280;63795;55.684;37.864;2022-10-16T19:40:48;101094.63;;;7.62;54.83
75208;BME280;63795;55.684;37.864;2022-10-16T19:45:49;101104.53;;;7.56;54.97
75208;BME280;63795;55.684;37.864;2022-10-16T19:50:50;101062.03;;;7.25;55.08
75208;BME280;63795;55.684;37.864;2022-10-16T19:55:51;101104.31;;;7.49;55.11
75208;BME280;63795;55.684;37.864;2022-10-16T20:00:52;101071.19;;;7.22;55.43
75208;BME280;63795;55.684;37.864;2022-10-16T20:05:56;101101.63;;;7.41;55.32
75208;BME280;63795;55.684;37.864;2022-10-16T20:11:01;101092.22;;;7.37;55.42
75208;BME280;63795;55.684;37.864;2022-10-16T20:16:05;101066.84;;;7.25;55.55
75208;BME280;63795;55.684;37.864;2022-10-16T20:21:13;101106.69;;;7.35;55.56
75208;BME280;63795;55.684;37.864;2022-10-16T20:26:15;101077.56;;;7.19;55.66
75208;BME280;63795;55.684;37.864;2022-10-16T20:31:25;101079.91;;;7.17;55.47
75208;BME280;63795;55.684;37.864;2022-10-16T20:36:26;101066.31;;;7.07;55.82
75208;BME280;63795;55.684;37.864;2022-10-16T20:41:29;101090.25;;;7.13;56.02
75208;BME280;63795;55.684;37.864;2022-10-16T20:46:30;101078.53;;;6.99;56.56
75208;BME280;63795;55.684;37.864;2022-10-16T20:51:31;101083.44;;;7.02;56.29
75208;BME280;63795;55.684;37.864;2022-10-16T20:56:35;101081.56;;;6.94;56.54
75208;BME280;63795;55.684;37.864;2022-10-16T21:01:35;101081.34;;;6.87;56.72
75208;BME280;63795;55.684;37.864;2022-10-16T21:06:38;101091.44;;;6.88;56.89
75208;BME280;63795;55.684;37.864;2022-10-16T21:11:39;101078.06;;;6.85;57.03
75208;BME280;63795;55.684;37.864;2022-10-16T21:16:39;101063.50;;;6.83;56.91
75208;BME280;63795;55.684;37.864;2022-10-16T21:21:40;101054.31;;;6.74;56.96
75208;BME280;63795;55.684;37.864;2022-10-16T21:26:40;101058.06;;;6.66;57.14
75208;BME280;63795;55.684;37.864;2022-10-16T21:31:41;101071.81;;;6.67;57.61
75208;BME280;63795;55.684;37.864;2022-10-16T21:36:44;101073.81;;;6.67;57.72
75208;BME280;63795;55.684;37.864;2022-10-16T21:41:47;101074.16;;;6.65;57.18
75208;BME280;63795;55.684;37.864;2022-10-16T21:46:49;101071.31;;;6.65;57.46
75208;BME280;63795;55.684;37.864;2022-10-16T21:57:49;101029.88;;;6.30;57.73
75208;BME280;63795;55.684;37.864;2022-10-16T22:02:50;101084.00;;;6.59;57.92
75208;BME280;63795;55.684;37.864;2022-10-16T22:07:50;101072.72;;;6.59;57.90
75208;BME280;63795;55.684;37.864;2022-10-16T22:12:54;101077.78;;;6.54;58.20
75208;BME280;63795;55.684;37.864;2022-10-16T22:17:55;101082.72;;;6.57;57.88
75208;BME280;63795;55.684;37.864;2022-10-16T22:22:55;101083.41;;;6.54;58.14
75208;BME280;63795;55.684;37.864;2022-10-16T22:27:56;101079.44;;;6.55;57.95
75208;BME280;63795;55.684;37.864;2022-10-16T22:32:56;101056.88;;;6.43;58.22
75208;BME280;63795;55.684;37.864;2022-10-16T22:37:57;101057.72;;;6.43;58.21
75208;BME280;63795;55.684;37.864;2022-10-16T22:42:57;101048.66;;;6.38;58.06
75208;BME280;63795;55.684;37.864;2022-10-16T22:47:58;101049.34;;;6.23;58.51
75208;BME280;63795;55.684;37.864;2022-10-16T22:52:59;101057.69;;;6.31;58.76
75208;BME280;63795;55.684;37.864;2022-10-16T22:57:59;101070.22;;;6.34;58.63
75208;BME280;63795;55.684;37.864;2022-10-16T23:03:01;101083.03;;;6.31;58.93
75208;BME280;63795;55.684;37.864;2022-10-16T23:08:02;101073.97;;;6.26;58.96
75208;BME280;63795;55.684;37.864;2022-10-16T23:13:13;101047.44;;;6.15;59.33
75208;BME280;63795;55.684;37.864;2022-10-16T23:18:17;101035.72;;;6.13;59.05
75208;BME280;63795;55.684;37.864;2022-10-16T23:23:20;101056.47;;;6.20;59.43
75208;BME280;63795;55.684;37.864;2022-10-16T23:28:23;101017.59;;;6.01;59.11
75208;BME280;63795;55.684;37.864;2022-10-16T23:33:27;101031.03;;;6.17;59.14
75208;BME280;63795;55.684;37.864;2022-10-16T23:38:28;101033.84;;;6.17;59.43
75208;BME280;63795;55.684;37.864;2022-10-16T23:43:28;100998.97;;;5.97;59.63
75208;BME280;63795;55.684;37.864;2022-10-16T23:48:29;101017.41;;;6.07;59.44
75208;BME280;63795;55.684;37.864;2022-10-16T23:53:31;101034.41;;;6.10;59.71
75208;BME280;63795;55.684;37.864;2022-10-16T23:58:31;101026.78;;;6.11;59.57
